createdAt,value
2018-09-30T00:00:50.558Z,5.6
2018-09-30T00:01:50.571Z,5.63
2018-09-30T00:02:50.595Z,5.67
2018-09-30T00:04:05.266Z,5.6
2018-09-30T00:04:50.632Z,5.67
2018-09-30T00:05:50.124Z,5.63
2018-09-30T00:06:50.658Z,5.78
2018-09-30T00:07:50.671Z,5.67
2018-09-30T00:08:50.694Z,5.71
2018-09-30T00:10:05.370Z,5.75
2018-09-30T00:10:50.762Z,5.65
2018-09-30T00:11:50.753Z,5.58
2018-09-30T00:12:50.756Z,5.65
2018-09-30T00:13:50.519Z,5.58
2018-09-30T00:14:50.282Z,5.57
2018-09-30T00:15:51.564Z,5.63
2018-09-30T00:16:50.582Z,5.71
2018-09-30T00:18:05.500Z,5.61
2018-09-30T00:18:50.963Z,5.54
2018-09-30T00:19:50.880Z,5.56
2018-09-30T00:20:50.895Z,5.49
2018-09-30T00:21:50.911Z,5.54
2018-09-30T00:22:50.930Z,5.51
2018-09-30T00:23:50.939Z,5.42
2018-09-30T00:24:50.957Z,5.45
2018-09-30T00:26:05.377Z,5.45
2018-09-30T00:26:50.993Z,5.28
2018-09-30T00:27:50.749Z,5.33
2018-09-30T00:28:51.025Z,5.25
2018-09-30T00:29:51.048Z,5.33
2018-09-30T00:30:51.061Z,5.39
2018-09-30T00:31:51.089Z,5.53
2018-09-30T00:33:05.752Z,5.48
2018-09-30T00:33:51.108Z,5.43
2018-09-30T00:35:05.784Z,5.46
2018-09-30T00:35:51.143Z,5.39
2018-09-30T00:36:51.160Z,5.45
2018-09-30T00:37:51.184Z,5.48
2018-09-30T00:38:50.934Z,5.39
2018-09-30T00:39:50.952Z,5.42
2018-09-30T00:40:51.227Z,5.33
2018-09-30T00:42:05.900Z,5.2
2018-09-30T00:42:51.007Z,5.31
2018-09-30T00:43:51.026Z,5.28
2018-09-30T00:44:51.298Z,5.3
2018-09-30T00:45:51.054Z,5.27
2018-09-30T00:46:51.069Z,5.38
2018-09-30T00:47:51.343Z,5.39
2018-09-30T00:48:51.359Z,5.38
2018-09-30T00:49:51.372Z,5.28
2018-09-30T00:50:51.393Z,5.21
2018-09-30T00:51:51.154Z,5.15
2018-09-30T00:52:51.433Z,5.15
2018-09-30T00:53:51.447Z,5.12
2018-09-30T00:54:51.202Z,5.04
2018-09-30T00:55:51.217Z,5.03
2018-09-30T00:56:51.490Z,5.09
2018-09-30T00:58:06.177Z,5.17
2018-09-30T00:58:51.269Z,5.1
2018-09-30T00:59:51.542Z,5.13
2018-09-30T01:01:51.580Z,5.1
2018-09-30T01:02:51.591Z,5.03
2018-09-30T01:03:51.607Z,4.99
2018-09-30T01:04:51.631Z,5.03
2018-09-30T01:05:51.642Z,5.12
2018-09-30T01:06:51.414Z,5.02
2018-09-30T01:07:51.675Z,4.96
2018-09-30T01:08:51.695Z,4.99
2018-09-30T01:09:51.713Z,4.99
2018-09-30T01:11:51.496Z,5.07
2018-09-30T01:13:06.420Z,5.06
2018-09-30T01:13:51.775Z,5.07
2018-09-30T01:14:51.795Z,5.06
2018-09-30T01:16:06.474Z,4.97
2018-09-30T01:16:51.823Z,4.86
2018-09-30T01:17:51.839Z,4.85
2018-09-30T01:18:52.009Z,4.91
2018-09-30T01:19:51.875Z,4.88
2018-09-30T01:20:51.890Z,4.91
2018-09-30T01:21:51.648Z,4.77
2018-09-30T01:23:06.580Z,4.88
2018-09-30T01:23:51.941Z,4.77
2018-09-30T01:24:51.955Z,4.86
2018-09-30T01:25:51.969Z,4.72
2018-09-30T01:26:51.735Z,4.7
2018-09-30T01:27:52.005Z,4.88
2018-09-30T01:28:52.046Z,4.8
2018-09-30T01:29:52.043Z,4.77
2018-09-30T01:30:52.054Z,4.89
2018-09-30T01:31:51.810Z,4.73
2018-09-30T01:32:52.085Z,4.73
2018-09-30T01:33:51.843Z,4.8
2018-09-30T01:34:52.117Z,4.66
2018-09-30T01:35:52.197Z,4.66
2018-09-30T01:37:06.814Z,4.72
2018-09-30T01:37:52.166Z,4.67
2018-09-30T01:39:06.843Z,4.67
2018-09-30T01:39:52.209Z,4.54
2018-09-30T01:40:51.959Z,4.59
2018-09-30T01:41:52.236Z,4.55
2018-09-30T01:42:52.255Z,4.73
2018-09-30T01:43:52.270Z,4.69
2018-09-30T01:45:06.943Z,4.69
2018-09-30T01:45:52.302Z,4.73
2018-09-30T01:48:52.347Z,4.66
2018-09-30T01:49:52.366Z,4.63
2018-09-30T01:50:52.378Z,4.62
2018-09-30T01:51:52.401Z,4.58
2018-09-30T01:53:07.074Z,4.54
2018-09-30T01:53:52.432Z,4.48
2018-09-30T01:55:07.104Z,4.54
2018-09-30T01:55:52.462Z,4.52
2018-09-30T01:56:52.482Z,4.48
2018-09-30T01:57:52.494Z,4.58
2018-09-30T01:58:52.508Z,4.62
2018-09-30T01:59:52.531Z,4.7
2018-09-30T02:01:06.951Z,4.55
2018-09-30T02:01:52.558Z,4.55
2018-09-30T02:02:52.577Z,4.59
2018-09-30T02:03:52.590Z,4.59
2018-09-30T02:04:52.608Z,4.51
2018-09-30T02:05:52.625Z,4.5
2018-09-30T02:06:52.641Z,4.5
2018-09-30T02:07:52.399Z,4.58
2018-09-30T02:09:07.334Z,4.66
2018-09-30T02:10:07.350Z,4.62
2018-09-30T02:10:52.709Z,4.55
2018-09-30T02:11:52.722Z,4.59
2018-09-30T02:12:52.739Z,4.67
2018-09-30T02:13:52.753Z,4.62
2018-09-30T02:14:52.773Z,4.6
2018-09-30T02:15:52.785Z,4.52
2018-09-30T02:17:07.468Z,4.58
2018-09-30T02:17:52.819Z,4.66
2018-09-30T02:18:52.845Z,4.67
2018-09-30T02:22:52.902Z,4.72
2018-09-30T02:23:52.926Z,4.63
2018-09-30T02:24:52.931Z,4.63
2018-09-30T02:25:52.692Z,4.67
2018-09-30T02:27:07.367Z,4.66
2018-09-30T02:27:52.722Z,4.63
2018-09-30T02:28:52.994Z,4.72
2018-09-30T02:29:53.012Z,4.72
2018-09-30T02:30:52.780Z,4.69
2018-09-30T02:31:52.791Z,4.69
2018-09-30T02:33:07.721Z,4.65
2018-09-30T02:33:52.818Z,4.72
2018-09-30T02:34:52.837Z,4.7
2018-09-30T02:35:53.112Z,4.67
2018-09-30T02:36:53.131Z,4.51
2018-09-30T02:37:53.142Z,4.5
2018-09-30T02:39:52.664Z,4.45
2018-09-30T02:40:53.194Z,4.48
2018-09-30T02:41:53.213Z,4.51
2018-09-30T02:43:07.882Z,4.44
2018-09-30T02:43:53.241Z,4.44
2018-09-30T02:44:53.254Z,4.42
2018-09-30T02:45:53.270Z,4.5
2018-09-30T02:46:53.289Z,4.47
2018-09-30T02:48:07.971Z,4.51
2018-09-30T02:48:53.066Z,4.42
2018-09-30T02:49:53.387Z,4.47
2018-09-30T02:50:53.360Z,4.47
2018-09-30T02:52:53.390Z,4.4
2018-09-30T02:53:53.400Z,4.41
2018-09-30T02:54:53.429Z,4.5
2018-09-30T02:55:53.441Z,4.36
2018-09-30T02:56:53.451Z,4.34
2018-09-30T02:57:53.517Z,4.41
2018-09-30T02:59:08.138Z,4.32
2018-09-30T02:59:53.509Z,4.33
2018-09-30T03:00:53.520Z,4.37
2018-09-30T03:01:53.532Z,4.36
2018-09-30T03:02:53.549Z,4.34
2018-09-30T03:03:53.570Z,4.22
2018-09-30T03:04:53.318Z,4.24
2018-09-30T03:05:53.595Z,4.16
2018-09-30T03:06:53.618Z,4.08
2018-09-30T03:07:53.374Z,4.18
2018-09-30T03:08:53.641Z,4.11
2018-09-30T03:09:53.664Z,4.16
2018-09-30T03:10:53.418Z,4.11
2018-09-30T03:11:53.689Z,4.06
2018-09-30T03:12:53.450Z,3.93
2018-09-30T03:14:08.379Z,4
2018-09-30T03:14:53.481Z,4.04
2018-09-30T03:15:53.754Z,3.96
2018-09-30T03:16:53.766Z,4.04
2018-09-30T03:17:53.786Z,4.12
2018-09-30T03:18:53.544Z,4.05
2018-09-30T03:20:08.477Z,4
2018-09-30T03:20:53.576Z,4.02
2018-09-30T03:21:53.587Z,3.96
2018-09-30T03:22:53.604Z,3.98
2018-09-30T03:23:53.882Z,3.97
2018-09-30T03:24:53.637Z,3.86
2018-09-30T03:25:53.913Z,3.91
2018-09-30T03:26:53.939Z,3.79
2018-09-30T03:27:53.946Z,3.83
2018-09-30T03:28:53.960Z,3.88
2018-09-30T03:29:53.975Z,3.86
2018-09-30T03:30:53.991Z,3.93
2018-09-30T03:31:53.762Z,3.91
2018-09-30T03:32:54.025Z,3.83
2018-09-30T03:33:54.037Z,3.79
2018-09-30T03:34:54.062Z,3.86
2018-09-30T03:36:08.478Z,3.72
2018-09-30T03:36:54.091Z,3.83
2018-09-30T03:37:54.107Z,3.79
2018-09-30T03:38:54.120Z,3.76
2018-09-30T03:39:54.139Z,3.75
2018-09-30T03:40:54.150Z,3.75
2018-09-30T03:41:54.164Z,3.72
2018-09-30T03:42:53.930Z,3.73
2018-09-30T03:43:54.037Z,3.79
2018-09-30T03:44:54.226Z,3.75
2018-09-30T03:45:54.227Z,3.75
2018-09-30T03:46:53.988Z,3.73
2018-09-30T03:47:54.260Z,3.73
2018-09-30T03:48:54.274Z,3.66
2018-09-30T03:49:54.333Z,3.78
2018-09-30T03:50:54.307Z,3.76
2018-09-30T03:52:08.982Z,3.58
2018-09-30T03:52:54.360Z,3.62
2018-09-30T03:53:54.357Z,3.58
2018-09-30T03:54:54.370Z,3.66
2018-09-30T03:55:54.384Z,3.58
2018-09-30T03:56:54.657Z,3.62
2018-09-30T03:57:54.158Z,3.58
2018-09-30T03:58:54.177Z,3.68
2018-09-30T04:00:09.107Z,3.61
2018-09-30T04:00:54.205Z,3.65
2018-09-30T04:01:54.480Z,3.57
2018-09-30T04:02:54.496Z,3.62
2018-09-30T04:03:54.515Z,3.58
2018-09-30T04:04:54.537Z,3.54
2018-09-30T04:05:54.543Z,3.55
2018-09-30T04:06:54.587Z,3.62
2018-09-30T04:08:08.973Z,3.62
2018-09-30T04:08:54.591Z,3.52
2018-09-30T04:09:54.801Z,3.57
2018-09-30T04:10:54.627Z,3.57
2018-09-30T04:12:54.662Z,3.6
2018-09-30T04:13:54.676Z,3.58
2018-09-30T04:14:54.696Z,3.58
2018-09-30T04:15:54.700Z,3.61
2018-09-30T04:16:54.881Z,3.62
2018-09-30T04:17:54.472Z,3.62
2018-09-30T04:18:54.752Z,3.65
2018-09-30T04:19:54.768Z,3.69
2018-09-30T04:20:54.783Z,3.6
2018-09-30T04:21:54.805Z,3.72
2018-09-30T04:23:09.468Z,3.78
2018-09-30T04:23:54.570Z,3.72
2018-09-30T04:24:54.855Z,3.65
2018-09-30T04:25:54.856Z,3.73
2018-09-30T04:26:54.626Z,3.6
2018-09-30T04:28:54.901Z,3.66
2018-09-30T04:29:54.915Z,3.69
2018-09-30T04:30:54.681Z,3.73
2018-09-30T04:31:54.700Z,3.72
2018-09-30T04:32:54.972Z,3.8
2018-09-30T04:33:54.988Z,3.66
2018-09-30T04:34:55.000Z,3.72
2018-09-30T04:35:55.010Z,3.79
2018-09-30T04:36:55.031Z,3.73
2018-09-30T04:37:55.044Z,3.69
2018-09-30T04:38:55.060Z,3.72
2018-09-30T04:39:55.079Z,3.61
2018-09-30T04:40:55.091Z,3.75
2018-09-30T04:41:55.105Z,3.73
2018-09-30T04:42:55.122Z,3.7
2018-09-30T04:43:54.879Z,3.69
2018-09-30T04:44:54.896Z,3.73
2018-09-30T04:45:55.172Z,3.68
2018-09-30T04:46:55.184Z,3.7
2018-09-30T04:48:09.857Z,3.57
2018-09-30T04:49:09.621Z,3.66
2018-09-30T04:50:09.915Z,3.62
2018-09-30T04:50:54.991Z,3.6
2018-09-30T04:51:55.260Z,3.57
2018-09-30T04:52:55.278Z,3.6
2018-09-30T04:53:55.292Z,3.54
2018-09-30T04:55:09.968Z,3.6
2018-09-30T04:55:55.325Z,3.6
2018-09-30T04:56:55.336Z,3.57
2018-09-30T04:57:55.096Z,3.6
2018-09-30T04:58:55.369Z,3.62
2018-09-30T04:59:55.386Z,3.6
2018-09-30T05:00:55.400Z,3.62
2018-09-30T05:01:55.162Z,3.57
2018-09-30T05:02:55.433Z,3.57
2018-09-30T05:04:10.106Z,3.61
2018-09-30T05:04:55.460Z,3.62
2018-09-30T05:05:55.364Z,3.66
2018-09-30T05:06:55.496Z,3.58
2018-09-30T05:08:55.574Z,3.6
2018-09-30T05:09:55.332Z,3.7
2018-09-30T05:11:10.215Z,3.62
2018-09-30T05:11:55.577Z,3.54
2018-09-30T05:12:55.330Z,3.6
2018-09-30T05:13:55.346Z,3.6
2018-09-30T05:14:55.619Z,3.55
2018-09-30T05:15:55.137Z,3.54
2018-09-30T05:17:10.311Z,3.57
2018-09-30T05:17:55.667Z,3.62
2018-09-30T05:18:55.679Z,3.5
2018-09-30T05:19:55.694Z,3.58
2018-09-30T05:20:55.716Z,3.65
2018-09-30T05:21:55.727Z,3.52
2018-09-30T05:22:55.752Z,3.55
2018-09-30T05:23:55.759Z,3.57
2018-09-30T05:24:55.771Z,3.7
2018-09-30T05:25:55.791Z,3.73
2018-09-30T05:27:10.207Z,3.76
2018-09-30T05:28:55.577Z,3.79
2018-09-30T05:29:55.857Z,3.86
2018-09-30T05:30:55.871Z,3.76
2018-09-30T05:32:55.902Z,3.79
2018-09-30T05:33:55.913Z,3.73
2018-09-30T05:35:10.590Z,3.8
2018-09-30T05:35:55.945Z,3.79
2018-09-30T05:36:55.960Z,3.79
2018-09-30T05:37:55.977Z,3.84
2018-09-30T05:39:56.012Z,3.84
2018-09-30T05:40:56.024Z,3.96
2018-09-30T05:41:56.040Z,4
2018-09-30T05:43:10.740Z,4
2018-09-30T05:44:56.085Z,4.08
2018-09-30T05:45:56.159Z,4.06
2018-09-30T05:46:56.119Z,4.14
2018-09-30T05:47:56.210Z,4.12
2018-09-30T05:48:56.154Z,4.2
2018-09-30T05:49:56.166Z,4.23
2018-09-30T05:50:55.928Z,4.22
2018-09-30T05:52:10.858Z,4.23
2018-09-30T05:53:10.872Z,4.26
2018-09-30T05:53:55.974Z,4.3
2018-09-30T05:54:56.246Z,4.47
2018-09-30T05:55:56.265Z,4.58
2018-09-30T05:56:56.286Z,4.65
2018-09-30T05:58:11.141Z,4.72
2018-09-30T05:58:56.318Z,4.77
2018-09-30T06:01:56.108Z,4.88
2018-09-30T06:02:56.385Z,5.18
2018-09-30T06:03:56.585Z,5.28
2018-09-30T06:04:56.419Z,5.42
2018-09-30T06:05:56.435Z,5.49
2018-09-30T06:07:11.117Z,5.68
2018-09-30T06:07:56.219Z,5.91
2018-09-30T06:08:56.635Z,6.09
2018-09-30T06:09:56.517Z,6.15
2018-09-30T06:10:56.277Z,6.33
2018-09-30T06:11:56.041Z,6.37
2018-09-30T06:12:56.323Z,6.4
2018-09-30T06:13:56.717Z,6.61
2018-09-30T06:14:56.364Z,6.71
2018-09-30T06:15:56.582Z,6.8
2018-09-30T06:16:56.670Z,6.99
2018-09-30T06:17:56.694Z,7.21
2018-09-30T06:18:56.707Z,7.35
2018-09-30T06:19:56.736Z,7.45
2018-09-30T06:20:56.498Z,7.53
2018-09-30T06:21:56.776Z,7.68
2018-09-30T06:23:11.462Z,7.61
2018-09-30T06:23:56.613Z,7.64
2018-09-30T06:24:56.850Z,7.75
2018-09-30T06:25:56.872Z,7.97
2018-09-30T06:26:56.634Z,7.97
2018-09-30T06:27:56.917Z,8.04
2018-09-30T06:28:56.685Z,8.05
2018-09-30T06:30:11.627Z,8.38
2018-09-30T06:30:56.997Z,8.45
2018-09-30T06:32:11.752Z,8.55
2018-09-30T06:32:57.041Z,8.68
2018-09-30T06:33:56.808Z,8.74
2018-09-30T06:34:56.835Z,8.79
2018-09-30T06:35:57.113Z,8.95
2018-09-30T06:36:57.135Z,9.13
2018-09-30T06:37:56.906Z,9.39
2018-09-30T06:38:57.192Z,9.39
2018-09-30T06:39:57.213Z,9.35
2018-09-30T06:40:57.003Z,9.33
2018-09-30T06:41:57.261Z,9.48
2018-09-30T06:42:57.031Z,9.6
2018-09-30T06:43:57.055Z,9.66
2018-09-30T06:44:57.515Z,9.72
2018-09-30T06:46:12.027Z,9.86
2018-09-30T06:46:57.132Z,9.94
2018-09-30T06:48:57.445Z,10.23
2018-09-30T06:49:57.466Z,10.36
2018-09-30T06:50:57.799Z,10.45
2018-09-30T06:52:57.543Z,10.6
2018-09-30T06:53:57.570Z,10.94
2018-09-30T06:54:57.599Z,11.02
2018-09-30T06:56:12.026Z,11.09
2018-09-30T06:56:57.393Z,11.17
2018-09-30T06:57:57.673Z,11.27
2018-09-30T06:58:57.699Z,11.32
2018-09-30T06:59:57.726Z,11.39
2018-09-30T07:00:57.753Z,11.6
2018-09-30T07:02:12.443Z,11.82
2018-09-30T07:02:57.811Z,11.86
2018-09-30T07:03:57.838Z,11.98
2018-09-30T07:04:58.613Z,11.95
2018-09-30T07:06:57.653Z,12.19
2018-09-30T07:07:57.947Z,12.34
2018-09-30T07:08:57.711Z,12.39
2018-09-30T07:09:57.737Z,12.49
2018-09-30T07:10:58.310Z,12.57
2018-09-30T07:11:57.793Z,12.59
2018-09-30T07:12:57.819Z,12.54
2018-09-30T07:13:58.105Z,12.64
2018-09-30T07:14:58.135Z,12.64
2018-09-30T07:15:57.900Z,12.79
2018-09-30T07:16:58.042Z,12.9
2018-09-30T07:18:12.873Z,13.12
2018-09-30T07:18:58.238Z,13.03
2018-09-30T07:19:58.270Z,13.15
2018-09-30T07:20:58.039Z,13.04
2018-09-30T07:21:58.318Z,13.14
2018-09-30T07:22:58.090Z,13.12
2018-09-30T07:23:58.117Z,13.19
2018-09-30T07:24:58.512Z,13.32
2018-09-30T07:25:58.432Z,13.59
2018-09-30T07:26:58.455Z,13.6
2018-09-30T07:27:58.490Z,13.67
2018-09-30T07:29:12.916Z,13.73
2018-09-30T07:29:58.538Z,13.64
2018-09-30T07:30:58.563Z,13.91
2018-09-30T07:31:58.328Z,13.88
2018-09-30T07:33:13.280Z,13.95
2018-09-30T07:33:58.815Z,14.06
2018-09-30T07:34:58.671Z,14.18
2018-09-30T07:35:58.442Z,14.17
2018-09-30T07:36:58.724Z,14.14
2018-09-30T07:37:58.492Z,14.18
2018-09-30T07:38:58.783Z,14.27
2018-09-30T07:39:58.809Z,14.33
2018-09-30T07:40:58.828Z,14.37
2018-09-30T07:41:58.863Z,14.5
2018-09-30T07:42:58.883Z,14.42
2018-09-30T07:43:58.658Z,14.42
2018-09-30T07:44:58.937Z,14.51
2018-09-30T07:45:58.967Z,14.42
2018-09-30T07:46:59.144Z,14.36
2018-09-30T07:47:58.807Z,14.51
2018-09-30T07:48:59.042Z,14.58
2018-09-30T07:49:59.069Z,14.69
2018-09-30T07:50:58.842Z,14.65
2018-09-30T07:51:58.869Z,14.7
2018-09-30T07:52:59.147Z,14.62
2018-09-30T07:53:59.173Z,14.69
2018-09-30T07:54:59.197Z,14.77
2018-09-30T07:55:59.227Z,14.69
2018-09-30T07:56:59.252Z,14.88
2018-09-30T07:58:13.941Z,14.95
2018-09-30T07:58:59.303Z,15.06
2018-09-30T07:59:59.327Z,15.2
2018-09-30T08:00:59.362Z,15.27
2018-09-30T08:01:59.133Z,15.25
2018-09-30T08:02:59.151Z,15.09
2018-09-30T08:03:59.435Z,15.29
2018-09-30T08:05:14.123Z,15.39
2018-09-30T08:05:59.489Z,15.44
2018-09-30T08:06:59.257Z,15.49
2018-09-30T08:07:59.278Z,15.44
2018-09-30T08:08:59.566Z,15.44
2018-09-30T08:09:59.590Z,15.47
2018-09-30T08:10:59.357Z,15.51
2018-09-30T08:11:59.642Z,15.36
2018-09-30T08:12:59.665Z,15.5
2018-09-30T08:13:59.694Z,15.67
2018-09-30T08:15:14.380Z,15.57
2018-09-30T08:15:59.755Z,15.5
2018-09-30T08:17:00.058Z,15.44
2018-09-30T08:17:59.804Z,15.38
2018-09-30T08:18:59.822Z,15.56
2018-09-30T08:19:59.593Z,15.69
2018-09-30T08:21:14.535Z,15.86
2018-09-30T08:21:59.898Z,16.02
2018-09-30T08:23:00.175Z,16.04
2018-09-30T08:24:00.090Z,15.92
2018-09-30T08:24:59.976Z,15.9
2018-09-30T08:25:59.998Z,15.86
2018-09-30T08:27:00.030Z,16.07
2018-09-30T08:28:00.054Z,16.09
2018-09-30T08:29:00.085Z,16.27
2018-09-30T08:30:00.103Z,16.31
2018-09-30T08:31:00.248Z,16.2
2018-09-30T08:31:59.898Z,16.34
2018-09-30T08:33:00.182Z,16.23
2018-09-30T08:34:00.218Z,16.17
2018-09-30T08:37:14.686Z,16.46
2018-09-30T08:38:00.048Z,16.39
2018-09-30T08:39:00.073Z,16.23
2018-09-30T08:40:00.655Z,16.33
2018-09-30T08:40:59.876Z,16.38
2018-09-30T08:42:00.150Z,16.27
2018-09-30T08:43:00.431Z,16.21
2018-09-30T08:44:00.405Z,16.05
2018-09-30T08:45:00.232Z,16.04
2018-09-30T08:46:00.412Z,16.08
2018-09-30T08:47:00.281Z,16.35
2018-09-30T08:50:00.353Z,16.35
2018-09-30T08:51:00.632Z,16.3
2018-09-30T08:52:00.669Z,16.45
2018-09-30T08:53:15.347Z,16.49
2018-09-30T08:54:00.202Z,16.3
2018-09-30T08:55:00.480Z,16.49
2018-09-30T08:56:00.669Z,16.64
2018-09-30T08:57:00.790Z,16.78
2018-09-30T08:58:00.812Z,16.66
2018-09-30T08:59:00.839Z,16.71
2018-09-30T09:00:00.869Z,16.86
2018-09-30T09:01:00.633Z,17.03
2018-09-30T09:02:15.574Z,17.08
2018-09-30T09:03:00.776Z,17.06
2018-09-30T09:04:00.962Z,17.16
2018-09-30T09:05:00.991Z,17.31
2018-09-30T09:06:01.028Z,17.4
2018-09-30T09:07:01.041Z,17.55
2018-09-30T09:08:15.733Z,17.46
2018-09-30T09:09:01.097Z,17.56
2018-09-30T09:10:01.365Z,17.64
2018-09-30T09:11:01.144Z,17.64
2018-09-30T09:13:01.191Z,17.75
2018-09-30T09:14:01.217Z,17.9
2018-09-30T09:15:01.244Z,17.71
2018-09-30T09:16:01.269Z,17.75
2018-09-30T09:17:01.036Z,17.95
2018-09-30T09:18:01.321Z,17.78
2018-09-30T09:19:01.092Z,17.95
2018-09-30T09:20:01.382Z,17.93
2018-09-30T09:21:01.394Z,18.1
2018-09-30T09:22:01.420Z,18.25
2018-09-30T09:23:01.447Z,18.08
2018-09-30T09:24:01.476Z,18.11
2018-09-30T09:25:01.504Z,18.21
2018-09-30T09:26:01.271Z,18.29
2018-09-30T09:27:01.290Z,18.44
2018-09-30T09:28:01.746Z,18.44
2018-09-30T09:29:01.661Z,18.51
2018-09-30T09:30:01.624Z,18.84
2018-09-30T09:31:01.648Z,18.84
2018-09-30T09:32:01.416Z,18.72
2018-09-30T09:33:01.925Z,18.66
2018-09-30T09:34:01.732Z,18.67
2018-09-30T09:35:16.492Z,18.5
2018-09-30T09:36:01.777Z,18.42
2018-09-30T09:37:01.814Z,18.6
2018-09-30T09:39:01.596Z,18.7
2018-09-30T09:40:16.540Z,18.62
2018-09-30T09:41:01.904Z,18.78
2018-09-30T09:43:01.694Z,18.81
2018-09-30T09:44:01.979Z,18.9
2018-09-30T09:45:16.673Z,19.04
2018-09-30T09:46:02.030Z,18.94
2018-09-30T09:47:16.785Z,19.04
2018-09-30T09:48:16.745Z,18.98
2018-09-30T09:49:01.595Z,18.91
2018-09-30T09:50:02.131Z,18.95
2018-09-30T09:51:02.161Z,19.13
2018-09-30T09:52:02.185Z,18.87
2018-09-30T09:53:02.218Z,18.75
2018-09-30T09:54:02.234Z,18.6
2018-09-30T09:55:02.267Z,18.67
2018-09-30T09:56:16.948Z,18.63
2018-09-30T09:57:02.314Z,18.7
2018-09-30T09:58:02.355Z,18.66
2018-09-30T09:59:02.429Z,18.62
2018-09-30T10:00:02.387Z,18.63
2018-09-30T10:01:02.413Z,18.51
2018-09-30T10:02:02.439Z,18.37
2018-09-30T10:03:02.472Z,18.39
2018-09-30T10:04:02.231Z,18.36
2018-09-30T10:05:17.242Z,18.27
2018-09-30T10:06:02.280Z,18.21
2018-09-30T10:07:02.574Z,18.12
2018-09-30T10:08:02.671Z,18.08
2018-09-30T10:09:02.612Z,18.15
2018-09-30T10:10:02.658Z,18.14
2018-09-30T10:11:02.662Z,18.15
2018-09-30T10:12:17.351Z,18.18
2018-09-30T10:13:02.948Z,18.15
2018-09-30T10:14:02.742Z,18.25
2018-09-30T10:16:02.792Z,18.1
2018-09-30T10:17:02.300Z,18.07
2018-09-30T10:18:02.839Z,18.02
2018-09-30T10:19:02.872Z,18.1
2018-09-30T10:20:02.889Z,18.12
2018-09-30T10:21:02.920Z,18.05
2018-09-30T10:22:02.689Z,18.07
2018-09-30T10:23:17.624Z,17.9
2018-09-30T10:24:02.986Z,17.84
2018-09-30T10:25:03.013Z,17.89
2018-09-30T10:26:03.045Z,17.96
2018-09-30T10:27:03.060Z,17.9
2018-09-30T10:28:17.748Z,17.96
2018-09-30T10:29:03.117Z,17.93
2018-09-30T10:30:03.141Z,17.93
2018-09-30T10:31:03.164Z,17.96
2018-09-30T10:32:03.202Z,17.96
2018-09-30T10:34:02.982Z,18.08
2018-09-30T10:35:03.257Z,18.08
2018-09-30T10:36:03.034Z,18.08
2018-09-30T10:37:17.967Z,18.07
2018-09-30T10:38:03.069Z,18.05
2018-09-30T10:39:03.364Z,18.12
2018-09-30T10:40:03.378Z,18.26
2018-09-30T10:41:03.148Z,18.27
2018-09-30T10:42:03.173Z,18.26
2018-09-30T10:43:18.111Z,18.08
2018-09-30T10:44:03.481Z,18.14
2018-09-30T10:45:03.240Z,18.3
2018-09-30T10:46:03.525Z,18.27
2018-09-30T10:47:03.565Z,18.26
2018-09-30T10:48:03.569Z,18.41
2018-09-30T10:49:03.596Z,18.32
2018-09-30T10:50:03.625Z,18.25
2018-09-30T10:51:03.127Z,18.26
2018-09-30T10:52:03.664Z,18.42
2018-09-30T10:53:03.691Z,18.36
2018-09-30T10:54:03.716Z,18.32
2018-09-30T10:56:03.767Z,18.3
2018-09-30T10:57:03.991Z,18.17
2018-09-30T10:58:03.819Z,18.12
2018-09-30T10:59:03.833Z,18.14
2018-09-30T11:00:03.860Z,18.12
2018-09-30T11:01:03.885Z,18.14
2018-09-30T11:02:03.913Z,18.25
2018-09-30T11:03:03.939Z,18.23
2018-09-30T11:04:03.699Z,18.23
2018-09-30T11:05:03.727Z,18.39
2018-09-30T11:06:03.999Z,18.37
2018-09-30T11:07:04.018Z,18.26
2018-09-30T11:08:18.707Z,18.3
2018-09-30T11:09:04.073Z,18.26
2018-09-30T11:10:04.404Z,18.3
2018-09-30T11:11:04.118Z,18.32
2018-09-30T11:12:04.149Z,18.32
2018-09-30T11:13:04.160Z,18.42
2018-09-30T11:14:03.671Z,18.39
2018-09-30T11:15:18.870Z,18.44
2018-09-30T11:16:04.036Z,18.51
2018-09-30T11:17:04.296Z,18.54
2018-09-30T11:18:04.023Z,18.57
2018-09-30T11:19:04.059Z,18.45
2018-09-30T11:20:04.073Z,18.45
2018-09-30T11:21:04.352Z,18.33
2018-09-30T11:22:04.381Z,18.44
2018-09-30T11:23:19.061Z,18.41
2018-09-30T11:24:04.200Z,18.41
2018-09-30T11:25:04.450Z,18.33
2018-09-30T11:26:04.473Z,18.45
2018-09-30T11:27:04.517Z,18.35
2018-09-30T11:29:04.544Z,18.39
2018-09-30T11:30:04.305Z,18.37
2018-09-30T11:31:19.246Z,18.48
2018-09-30T11:32:04.814Z,18.48
2018-09-30T11:33:19.301Z,18.5
2018-09-30T11:34:04.670Z,18.44
2018-09-30T11:35:04.683Z,18.42
2018-09-30T11:36:04.443Z,18.5
2018-09-30T11:38:19.416Z,18.41
2018-09-30T11:39:04.518Z,18.41
2018-09-30T11:40:04.282Z,18.37
2018-09-30T11:41:04.820Z,18.35
2018-09-30T11:42:04.589Z,18.37
2018-09-30T11:43:04.612Z,18.37
2018-09-30T11:44:04.899Z,18.39
2018-09-30T11:45:04.757Z,18.42
2018-09-30T11:46:04.942Z,18.37
2018-09-30T11:47:19.624Z,18.6
2018-09-30T11:48:04.732Z,18.7
2018-09-30T11:49:04.757Z,18.75
2018-09-30T11:50:05.087Z,18.7
2018-09-30T11:52:05.080Z,18.8
2018-09-30T11:53:04.588Z,18.58
2018-09-30T11:54:04.871Z,18.58
2018-09-30T11:55:04.893Z,18.76
2018-09-30T11:57:05.198Z,18.66
2018-09-30T11:58:05.221Z,18.78
2018-09-30T11:59:04.985Z,18.7
2018-09-30T12:00:05.266Z,18.72
2018-09-30T12:01:05.324Z,18.75
2018-09-30T12:02:04.897Z,18.72
2018-09-30T12:03:19.740Z,18.62
2018-09-30T12:04:05.101Z,18.65
2018-09-30T12:06:05.152Z,18.66
2018-09-30T12:07:05.432Z,18.57
2018-09-30T12:08:20.118Z,18.69
2018-09-30T12:09:05.475Z,18.73
2018-09-30T12:10:05.241Z,18.78
2018-09-30T12:11:05.265Z,18.84
2018-09-30T12:12:20.208Z,18.76
2018-09-30T12:13:19.976Z,18.75
2018-09-30T12:14:05.600Z,18.72
2018-09-30T12:15:05.100Z,18.66
2018-09-30T12:16:05.642Z,18.7
2018-09-30T12:17:05.674Z,18.55
2018-09-30T12:18:20.348Z,18.57
2018-09-30T12:19:05.719Z,18.7
2018-09-30T12:20:05.218Z,18.54
2018-09-30T12:21:05.757Z,18.7
2018-09-30T12:22:05.790Z,18.76
2018-09-30T12:23:05.812Z,18.63
2018-09-30T12:24:05.831Z,18.63
2018-09-30T12:25:05.593Z,18.69
2018-09-30T12:26:05.877Z,18.54
2018-09-30T12:27:05.901Z,18.63
2018-09-30T12:28:05.922Z,18.58
2018-09-30T12:29:05.949Z,18.58
2018-09-30T12:30:05.981Z,18.6
2018-09-30T12:31:05.995Z,18.57
2018-09-30T12:32:06.013Z,18.7
2018-09-30T12:33:05.523Z,18.73
2018-09-30T12:34:06.074Z,18.63
2018-09-30T12:35:06.086Z,18.7
2018-09-30T12:36:06.112Z,18.81
2018-09-30T12:37:06.133Z,18.85
2018-09-30T12:38:06.154Z,18.85
2018-09-30T12:39:05.921Z,18.84
2018-09-30T12:40:06.206Z,18.72
2018-09-30T12:41:05.709Z,18.66
2018-09-30T12:42:20.909Z,18.67
2018-09-30T12:43:20.934Z,18.69
2018-09-30T12:44:20.697Z,18.7
2018-09-30T12:45:05.808Z,18.75
2018-09-30T12:46:06.083Z,18.82
2018-09-30T12:47:06.367Z,18.92
2018-09-30T12:48:06.132Z,18.87
2018-09-30T12:49:06.412Z,18.9
2018-09-30T12:50:21.094Z,18.85
2018-09-30T12:51:06.466Z,18.82
2018-09-30T12:52:06.233Z,18.67
2018-09-30T12:53:05.987Z,18.81
2018-09-30T12:55:06.294Z,18.88
2018-09-30T12:56:06.575Z,18.94
2018-09-30T12:57:06.596Z,18.85
2018-09-30T12:58:06.845Z,18.91
2018-09-30T12:59:06.389Z,18.81
2018-09-30T13:00:06.682Z,18.88
2018-09-30T13:01:06.692Z,18.8
2018-09-30T13:02:06.458Z,18.8
2018-09-30T13:03:06.741Z,18.85
2018-09-30T13:04:06.794Z,18.76
2018-09-30T13:05:06.532Z,18.81
2018-09-30T13:06:21.468Z,18.8
2018-09-30T13:07:06.839Z,18.76
2018-09-30T13:08:06.601Z,18.84
2018-09-30T13:09:06.363Z,18.88
2018-09-30T13:10:06.907Z,18.92
2018-09-30T13:11:06.671Z,18.98
2018-09-30T13:12:06.806Z,18.92
2018-09-30T13:13:06.973Z,18.87
2018-09-30T13:14:06.741Z,18.84
2018-09-30T13:15:06.504Z,18.7
2018-09-30T13:16:21.445Z,18.73
2018-09-30T13:17:07.071Z,18.67
2018-09-30T13:18:07.089Z,18.84
2018-09-30T13:19:07.119Z,18.85
2018-09-30T13:20:07.143Z,18.82
2018-09-30T13:21:07.539Z,18.92
2018-09-30T13:22:21.847Z,18.82
2018-09-30T13:23:07.208Z,18.73
2018-09-30T13:24:06.970Z,18.76
2018-09-30T13:25:07.264Z,18.88
2018-09-30T13:27:07.296Z,18.76
2018-09-30T13:28:07.342Z,18.75
2018-09-30T13:29:07.090Z,18.76
2018-09-30T13:30:07.367Z,18.7
2018-09-30T13:31:22.053Z,18.76
2018-09-30T13:32:07.166Z,18.66
2018-09-30T13:33:07.437Z,18.75
2018-09-30T13:34:07.462Z,18.69
2018-09-30T13:35:06.974Z,18.63
2018-09-30T13:36:07.510Z,18.55
2018-09-30T13:37:07.537Z,18.8
2018-09-30T13:38:22.216Z,18.78
2018-09-30T13:39:07.578Z,18.7
2018-09-30T13:40:07.971Z,18.73
2018-09-30T13:41:07.794Z,18.72
2018-09-30T13:42:07.392Z,18.72
2018-09-30T13:43:07.414Z,18.58
2018-09-30T13:44:07.695Z,18.69
2018-09-30T13:45:07.722Z,18.57
2018-09-30T13:46:07.610Z,18.66
2018-09-30T13:47:07.770Z,18.55